createdAt,value
2019-06-08T00:00:22.610Z,63.52
2019-06-08T00:02:52.030Z,63.93
2019-06-08T00:05:21.331Z,63.45
2019-06-08T00:07:50.595Z,63.89
2019-06-08T00:10:23.628Z,63.94
2019-06-08T00:12:53.165Z,63.62
2019-06-08T00:15:22.494Z,63.92
2019-06-08T00:17:51.745Z,65.52
2019-06-08T00:20:21.866Z,65.16
2019-06-08T00:22:51.296Z,65.37
2019-06-08T00:25:20.970Z,65.02
2019-06-08T00:27:51.565Z,65.47
2019-06-08T00:30:20.870Z,65.43
2019-06-08T00:32:50.238Z,64.86
2019-06-08T00:35:20.761Z,64.43
2019-06-08T00:37:50.166Z,64.58
2019-06-08T00:40:21.141Z,64.37
2019-06-08T00:42:50.572Z,64.20
2019-06-08T00:45:20.390Z,65.11
2019-06-08T00:47:50.918Z,63.86
2019-06-08T00:50:21.015Z,63.49
2019-06-08T00:52:50.360Z,63.16
2019-06-08T00:55:19.656Z,62.83
2019-06-08T00:57:48.928Z,62.82
2019-06-08T01:00:20.418Z,62.28
2019-06-08T01:02:49.858Z,61.98
2019-06-08T01:05:19.899Z,62.21
2019-06-08T01:07:49.278Z,62.16
2019-06-08T01:10:21.303Z,62.20
2019-06-08T01:12:50.600Z,62.44
2019-06-08T01:15:28.889Z,61.11
2019-06-08T01:18:02.187Z,61.60
2019-06-08T01:20:23.468Z,61.66
2019-06-08T01:22:52.798Z,61.49
2019-06-08T01:25:22.094Z,61.75
2019-06-08T01:27:51.367Z,61.78
2019-06-08T01:30:22.223Z,61.25
2019-06-08T01:32:51.586Z,62.17
2019-06-08T01:35:20.962Z,61.34
2019-06-08T01:37:50.264Z,61.99
2019-06-08T01:40:21.216Z,61.13
2019-06-08T01:42:51.113Z,61.37
2019-06-08T01:45:33.161Z,61.50
2019-06-08T01:48:18.895Z,61.73
2019-06-08T01:50:36.528Z,61.60
2019-06-08T01:53:06.796Z,61.67
2019-06-08T01:55:37.148Z,62.18
2019-06-08T01:58:06.428Z,61.87
2019-06-08T02:00:41.169Z,61.25
2019-06-08T02:03:07.078Z,61.63
2019-06-08T02:05:36.340Z,61.53
2019-06-08T02:08:05.816Z,61.23
2019-06-08T02:10:35.092Z,61.51
2019-06-08T02:13:08.271Z,61.12
2019-06-08T02:15:35.496Z,61.46
2019-06-08T02:18:04.839Z,61.09
2019-06-08T02:20:35.389Z,60.95
2019-06-08T02:23:04.838Z,60.81
2019-06-08T02:25:35.567Z,61.81
2019-06-08T02:28:05.112Z,60.92
2019-06-08T02:30:37.218Z,60.99
2019-06-08T02:33:05.684Z,61.36
2019-06-08T02:35:35.917Z,60.44
2019-06-08T02:38:06.122Z,60.92
2019-06-08T02:40:37.017Z,60.82
2019-06-08T02:43:06.629Z,60.52
2019-06-08T02:45:37.028Z,60.54
2019-06-08T02:48:07.055Z,60.70
2019-06-08T02:50:56.672Z,60.76
2019-06-08T02:53:29.073Z,60.34
2019-06-08T02:55:58.476Z,61.42
2019-06-08T02:58:29.240Z,61.21
2019-06-08T03:00:58.708Z,60.97
2019-06-08T03:03:31.598Z,60.64
2019-06-08T03:06:02.875Z,60.55
2019-06-08T03:08:41.459Z,61.51
2019-06-08T03:11:09.989Z,60.85
2019-06-08T03:13:42.430Z,60.82
2019-06-08T03:16:11.442Z,61.24
2019-06-08T03:18:42.606Z,60.97
2019-06-08T03:21:11.712Z,60.96
2019-06-08T03:23:43.275Z,61.25
2019-06-08T03:26:12.085Z,61.57
2019-06-08T03:28:42.315Z,61.62
2019-06-08T03:31:12.457Z,61.37
2019-06-08T03:33:50.750Z,61.07
2019-06-08T03:36:12.782Z,61.55
2019-06-08T03:38:42.931Z,61.78
2019-06-08T03:41:13.101Z,62.03
2019-06-08T03:43:42.513Z,62.43
2019-06-08T03:46:11.849Z,61.93
2019-06-08T03:48:42.171Z,62.10
2019-06-08T03:51:12.173Z,62.52
2019-06-08T03:53:42.596Z,62.73
2019-06-08T03:56:12.599Z,63.21
2019-06-08T03:58:45.162Z,62.69
2019-06-08T04:01:14.435Z,63.13
2019-06-08T04:03:44.068Z,62.80
2019-06-08T04:06:13.812Z,62.91
2019-06-08T04:08:45.375Z,62.15
2019-06-08T04:11:15.066Z,62.63
2019-06-08T04:13:45.124Z,62.81
2019-06-08T04:16:15.383Z,63.62
2019-06-08T04:18:46.818Z,64.60
2019-06-08T04:21:17.341Z,65.01
2019-06-08T04:23:47.283Z,64.82
2019-06-08T04:26:16.618Z,64.21
2019-06-08T04:28:47.243Z,63.54
2019-06-08T04:31:16.872Z,63.92
2019-06-08T04:33:46.649Z,63.85
2019-06-08T04:36:16.137Z,64.76
2019-06-08T04:38:46.201Z,63.88
2019-06-08T04:41:16.415Z,64.29
2019-06-08T04:43:47.366Z,64.79
2019-06-08T04:46:16.667Z,64.06
2019-06-08T04:48:47.982Z,64.16
2019-06-08T04:51:17.046Z,63.85
2019-06-08T04:53:47.215Z,63.69
2019-06-08T04:56:17.080Z,63.71
2019-06-08T04:58:48.349Z,63.89
2019-06-08T05:01:17.353Z,63.80
2019-06-08T05:03:47.801Z,63.73
2019-06-08T05:06:17.605Z,64.05
2019-06-08T05:08:47.415Z,64.62
2019-06-08T05:11:16.726Z,65.27
2019-06-08T05:13:47.608Z,64.16
2019-06-08T05:16:16.988Z,63.79
2019-06-08T05:18:47.339Z,63.74
2019-06-08T05:21:16.810Z,64.72
2019-06-08T05:23:47.882Z,64.28
2019-06-08T05:26:17.083Z,65.58
2019-06-08T05:28:47.379Z,66.55
2019-06-08T05:31:16.769Z,67.37
2019-06-08T05:33:47.483Z,67.31
2019-06-08T05:36:16.897Z,67.84
2019-06-08T05:38:46.165Z,67.10
2019-06-08T05:41:15.457Z,66.40
2019-06-08T05:43:45.621Z,66.58
2019-06-08T05:46:15.011Z,67.10
2019-06-08T05:48:44.296Z,67.10
2019-06-08T05:51:13.572Z,66.87
2019-06-08T05:53:43.815Z,67.76
2019-06-08T05:56:13.252Z,68.55
2019-06-08T05:58:43.876Z,68.42
2019-06-08T06:01:13.253Z,69.04
2019-06-08T06:03:44.572Z,69.99
2019-06-08T06:06:14.027Z,70.49
2019-06-08T06:08:44.442Z,70.78
2019-06-08T06:11:14.095Z,71.17
2019-06-08T06:13:43.387Z,71.76
2019-06-08T06:16:12.673Z,70.49
2019-06-08T06:18:42.937Z,72.19
2019-06-08T06:21:13.774Z,74.42
2019-06-08T06:23:43.187Z,77.39
2019-06-08T06:26:12.634Z,78.30
2019-06-08T06:28:41.936Z,79.39
2019-06-08T06:31:11.229Z,82.62
2019-06-08T06:33:41.869Z,83.55
2019-06-08T06:36:12.374Z,84.87
2019-06-08T06:38:41.956Z,85.11
2019-06-08T06:41:11.247Z,86.35
2019-06-08T06:43:42.129Z,86.46
2019-06-08T06:46:11.607Z,85.49
2019-06-08T06:48:41.997Z,85.71
2019-06-08T06:51:25.230Z,84.85
2019-06-08T06:53:42.802Z,84.79
2019-06-08T06:56:12.244Z,83.66
2019-06-08T06:58:41.564Z,83.13
2019-06-08T07:01:10.869Z,82.66
2019-06-08T07:03:40.164Z,83.14
2019-06-08T07:06:09.427Z,81.35
2019-06-08T07:08:41.918Z,80.56
2019-06-08T07:11:09.709Z,81.78
2019-06-08T07:13:39.009Z,80.12
2019-06-08T07:16:17.793Z,78.94
2019-06-08T07:18:39.302Z,79.04
2019-06-08T07:21:08.575Z,78.51
2019-06-08T07:23:37.872Z,77.50
2019-06-08T07:26:08.070Z,75.85
2019-06-08T07:28:37.337Z,76.62
2019-06-08T07:31:06.620Z,75.40
2019-06-08T07:33:35.903Z,74.07
2019-06-08T07:36:05.201Z,73.74
2019-06-08T07:38:34.479Z,73.58
2019-06-08T07:41:03.762Z,72.08
2019-06-08T07:43:33.064Z,73.27
2019-06-08T07:46:02.350Z,71.46
2019-06-08T07:48:31.655Z,71.50
2019-06-08T07:51:00.951Z,71.64
2019-06-08T07:53:30.242Z,70.89
2019-06-08T07:55:59.829Z,70.15
2019-06-08T07:58:29.231Z,69.57
2019-06-08T08:01:06.699Z,68.80
2019-06-08T08:03:29.497Z,67.89
2019-06-08T08:05:58.768Z,68.59
2019-06-08T08:08:28.075Z,65.55
2019-06-08T08:10:58.647Z,66.28
2019-06-08T08:13:28.282Z,64.86
2019-06-08T08:15:59.321Z,66.02
2019-06-08T08:18:28.551Z,66.41
2019-06-08T08:21:03.008Z,66.34
2019-06-08T08:23:28.819Z,66.65
2019-06-08T08:26:01.368Z,66.52
2019-06-08T08:28:29.084Z,66.25
2019-06-08T08:31:00.366Z,66.10
2019-06-08T08:33:29.344Z,65.64
2019-06-08T08:36:01.456Z,66.78
2019-06-08T08:38:29.630Z,65.89
2019-06-08T08:41:06.170Z,65.39
2019-06-08T08:43:29.964Z,64.05
2019-06-08T08:46:01.817Z,64.49
2019-06-08T08:48:31.713Z,64.19
2019-06-08T08:51:03.516Z,64.39
2019-06-08T08:53:32.248Z,64.63
2019-06-08T08:56:02.592Z,64.45
2019-06-08T08:58:31.994Z,64.30
2019-06-08T09:01:03.503Z,63.83
2019-06-08T09:03:33.727Z,63.53
2019-06-08T09:06:04.677Z,64.11
2019-06-08T09:08:34.191Z,65.57
2019-06-08T09:11:04.266Z,66.33
2019-06-08T09:13:33.689Z,66.18
2019-06-08T09:16:04.229Z,66.23
2019-06-08T09:18:37.349Z,66.34
2019-06-08T09:21:08.122Z,64.55
2019-06-08T09:23:37.856Z,63.07
2019-06-08T09:26:12.178Z,60.98
2019-06-08T09:28:38.856Z,60.45
2019-06-08T09:31:12.854Z,60.27
2019-06-08T09:33:40.676Z,60.79
2019-06-08T09:36:09.957Z,60.09
2019-06-08T09:38:39.251Z,60.64
2019-06-08T09:41:09.092Z,60.28
2019-06-08T09:43:39.579Z,60.43
2019-06-08T09:46:09.453Z,60.55
2019-06-08T09:48:38.991Z,59.40
2019-06-08T09:51:09.327Z,59.85
2019-06-08T09:53:41.628Z,62.04
2019-06-08T09:56:10.372Z,62.88
2019-06-08T09:58:39.857Z,62.74
2019-06-08T10:01:12.344Z,63.23
2019-06-08T10:03:40.175Z,62.20
2019-06-08T10:06:12.329Z,61.47
2019-06-08T10:08:40.443Z,60.20
2019-06-08T10:11:09.951Z,60.49
2019-06-08T10:13:43.133Z,60.73
2019-06-08T10:16:10.899Z,61.19
2019-06-08T10:18:40.440Z,61.72
2019-06-08T10:21:10.009Z,64.41
2019-06-08T10:23:41.793Z,66.54
2019-06-08T10:26:11.308Z,68.44
2019-06-08T10:28:41.616Z,69.46
2019-06-08T10:31:10.896Z,67.94
2019-06-08T10:33:40.540Z,67.87
2019-06-08T10:36:12.839Z,65.79
2019-06-08T10:38:41.535Z,65.47
2019-06-08T10:41:17.845Z,66.62
2019-06-08T10:43:42.000Z,66.39
2019-06-08T10:46:16.542Z,65.20
2019-06-08T10:48:42.254Z,63.89
2019-06-08T10:51:13.115Z,63.11
2019-06-08T10:53:48.370Z,62.62
2019-06-08T10:56:13.650Z,64.45
2019-06-08T10:58:43.020Z,66.69
2019-06-08T11:01:13.246Z,67.00
2019-06-08T11:03:43.040Z,66.52
2019-06-08T11:06:13.890Z,65.88
2019-06-08T11:08:43.343Z,65.15
2019-06-08T11:11:12.659Z,64.05
2019-06-08T11:13:41.955Z,63.47
2019-06-08T11:16:13.445Z,59.50
2019-06-08T11:18:43.746Z,54.70
2019-06-08T11:21:13.202Z,56.33
2019-06-08T11:23:43.899Z,57.26
2019-06-08T11:26:19.706Z,60.73
2019-06-08T11:28:44.248Z,66.39
2019-06-08T11:31:15.943Z,67.42
2019-06-08T11:33:44.591Z,68.49
2019-06-08T11:36:14.982Z,66.96
2019-06-08T11:38:44.329Z,66.19
2019-06-08T11:41:13.896Z,64.62
2019-06-08T11:43:44.197Z,65.14
2019-06-08T11:46:13.508Z,65.99
2019-06-08T11:48:42.791Z,64.12
2019-06-08T11:51:13.194Z,62.36
2019-06-08T11:53:42.672Z,58.33
2019-06-08T11:56:13.523Z,58.73
2019-06-08T11:58:43.245Z,58.74
2019-06-08T12:01:15.457Z,61.60
2019-06-08T12:03:45.084Z,62.73
2019-06-08T12:06:14.696Z,61.05
2019-06-08T12:08:44.122Z,62.07
2019-06-08T12:11:18.062Z,56.70
2019-06-08T12:13:44.535Z,53.65
2019-06-08T12:16:15.717Z,51.69
2019-06-08T12:18:44.837Z,52.29
2019-06-08T12:21:14.631Z,53.41
2019-06-08T12:23:44.220Z,56.78
2019-06-08T12:26:14.500Z,66.02
2019-06-08T12:28:44.021Z,68.49
2019-06-08T12:31:21.455Z,66.91
2019-06-08T12:33:48.751Z,65.67
2019-06-08T12:36:20.543Z,64.72
2019-06-08T12:38:49.386Z,59.40
2019-06-08T12:41:19.395Z,56.68
2019-06-08T12:43:48.926Z,51.99
2019-06-08T12:46:19.816Z,51.20
2019-06-08T12:48:49.908Z,51.46
2019-06-08T12:51:21.094Z,48.23
2019-06-08T12:53:50.191Z,47.65
2019-06-08T12:56:23.921Z,50.34
2019-06-08T12:58:51.229Z,51.48
2019-06-08T13:01:20.505Z,53.07
2019-06-08T13:03:49.810Z,54.57
2019-06-08T13:06:20.055Z,53.41
2019-06-08T13:08:50.324Z,53.98
2019-06-08T13:11:21.231Z,54.18
2019-06-08T13:13:50.680Z,51.55
2019-06-08T13:16:24.313Z,50.72
2019-06-08T13:18:51.181Z,53.12
2019-06-08T13:21:33.281Z,56.86
2019-06-08T13:23:51.452Z,66.83
2019-06-08T13:26:27.507Z,76.06
2019-06-08T13:28:51.716Z,81.45
2019-06-08T13:31:24.503Z,78.68
2019-06-08T13:33:53.057Z,82.96
2019-06-08T13:36:26.277Z,78.83
2019-06-08T13:38:53.320Z,79.18
2019-06-08T13:41:25.943Z,76.06
2019-06-08T13:43:55.060Z,75.95
2019-06-08T13:46:24.345Z,73.51
2019-06-08T13:48:53.635Z,74.24
2019-06-08T13:51:24.164Z,71.64
2019-06-08T13:53:53.644Z,71.30
2019-06-08T13:56:24.057Z,73.16
2019-06-08T13:58:53.527Z,70.41
2019-06-08T14:01:23.837Z,67.59
2019-06-08T14:03:54.025Z,67.51
2019-06-08T14:06:23.746Z,67.68
2019-06-08T14:08:54.266Z,67.74
2019-06-08T14:11:24.078Z,68.81
2019-06-08T14:13:54.690Z,68.64
2019-06-08T14:16:25.307Z,69.28
2019-06-08T14:18:54.977Z,63.94
2019-06-08T14:21:31.932Z,64.16
2019-06-08T14:23:55.243Z,65.60
2019-06-08T14:26:25.898Z,63.27
2019-06-08T14:28:55.323Z,61.96
2019-06-08T14:31:29.126Z,62.02
2019-06-08T14:33:56.681Z,60.09
2019-06-08T14:36:28.671Z,59.34
2019-06-08T14:39:01.986Z,60.37
2019-06-08T14:41:31.174Z,60.25
2019-06-08T14:43:58.981Z,60.67
2019-06-08T14:46:28.807Z,59.12
2019-06-08T14:48:59.492Z,60.38
2019-06-08T14:51:47.763Z,57.69
2019-06-08T14:54:22.480Z,57.02
2019-06-08T14:56:49.564Z,57.95
2019-06-08T14:59:21.458Z,58.02
2019-06-08T15:01:49.834Z,58.06
2019-06-08T15:04:23.182Z,53.09
2019-06-08T15:06:50.111Z,51.84
2019-06-08T15:09:21.359Z,53.64
2019-06-08T15:11:50.735Z,50.63
2019-06-08T15:14:20.045Z,50.46
2019-06-08T15:16:49.547Z,50.30
2019-06-08T15:19:20.100Z,49.83
2019-06-08T15:21:49.536Z,49.18
2019-06-08T15:24:18.834Z,49.93
2019-06-08T15:26:48.767Z,48.42
2019-06-08T15:29:18.400Z,47.38
2019-06-08T15:31:48.426Z,47.98
2019-06-08T15:34:18.402Z,48.40
2019-06-08T15:36:47.781Z,47.37
2019-06-08T15:39:17.950Z,49.32
2019-06-08T15:41:48.726Z,51.00
2019-06-08T15:44:21.295Z,50.65
2019-06-08T15:46:49.287Z,51.11
2019-06-08T15:49:18.784Z,49.80
2019-06-08T15:51:49.140Z,48.93
2019-06-08T15:54:18.436Z,49.08
2019-06-08T15:56:51.901Z,48.01
2019-06-08T15:59:18.696Z,48.35
2019-06-08T16:01:47.987Z,48.45
2019-06-08T16:04:17.483Z,46.81
2019-06-08T16:06:46.803Z,46.75
2019-06-08T16:09:16.140Z,46.50
2019-06-08T16:11:45.805Z,46.85
2019-06-08T16:14:15.111Z,45.71
2019-06-08T16:16:44.415Z,44.30
2019-06-08T16:19:13.726Z,44.79
2019-06-08T16:21:43.035Z,45.12
2019-06-08T16:24:12.337Z,45.92
2019-06-08T16:26:52.698Z,46.96
2019-06-08T16:29:12.606Z,46.16
2019-06-08T16:31:41.919Z,45.00
2019-06-08T16:34:11.254Z,45.79
2019-06-08T16:36:40.560Z,45.90
2019-06-08T16:39:09.841Z,45.63
2019-06-08T16:41:40.255Z,47.60
2019-06-08T16:44:10.015Z,45.70
2019-06-08T16:46:39.301Z,47.09
2019-06-08T16:49:08.601Z,45.06
2019-06-08T16:51:37.908Z,47.03
2019-06-08T16:54:07.230Z,46.05
2019-06-08T16:56:36.706Z,46.51
2019-06-08T16:59:06.168Z,46.67
2019-06-08T17:01:36.906Z,46.12
2019-06-08T17:04:06.206Z,46.14
2019-06-08T17:06:35.527Z,46.12
2019-06-08T17:09:07.037Z,45.82
2019-06-08T17:11:36.336Z,46.51
2019-06-08T17:14:05.855Z,46.59
2019-06-08T17:16:36.361Z,45.79
2019-06-08T17:19:05.935Z,45.36
2019-06-08T17:21:36.275Z,44.33
2019-06-08T17:24:05.682Z,42.69
2019-06-08T17:26:35.034Z,43.87
2019-06-08T17:29:04.361Z,42.75
2019-06-08T17:31:35.137Z,43.77
2019-06-08T17:34:04.638Z,43.41
2019-06-08T17:36:34.551Z,44.89
2019-06-08T17:39:05.210Z,42.55
2019-06-08T17:41:36.086Z,42.30
2019-06-08T17:44:05.364Z,43.73
2019-06-08T17:46:34.673Z,43.98
2019-06-08T17:49:03.949Z,44.24
2019-06-08T17:51:33.278Z,44.41
2019-06-08T17:54:02.931Z,44.52
2019-06-08T17:56:32.978Z,44.62
2019-06-08T17:59:02.289Z,45.35
2019-06-08T18:01:33.884Z,45.13
2019-06-08T18:04:02.822Z,44.95
2019-06-08T18:06:32.120Z,44.90
2019-06-08T18:09:01.421Z,46.18
2019-06-08T18:11:32.332Z,47.50
2019-06-08T18:14:01.660Z,47.86
2019-06-08T18:16:30.950Z,47.63
2019-06-08T18:19:00.250Z,48.49
2019-06-08T18:21:29.568Z,49.61
2019-06-08T18:23:58.888Z,49.38
2019-06-08T18:26:28.226Z,49.81
2019-06-08T18:28:59.194Z,50.34
2019-06-08T18:31:28.525Z,49.85
2019-06-08T18:33:59.858Z,50.39
2019-06-08T18:36:28.904Z,50.07
2019-06-08T18:38:58.285Z,50.65
2019-06-08T18:41:27.572Z,50.00
2019-06-08T18:43:58.351Z,51.69
2019-06-08T18:46:27.768Z,50.46
2019-06-08T18:48:57.891Z,51.31
2019-06-08T18:51:28.061Z,50.30
2019-06-08T18:54:08.479Z,51.37
2019-06-08T18:56:28.615Z,51.68
2019-06-08T18:58:58.314Z,51.17
2019-06-08T19:01:27.985Z,50.23
2019-06-08T19:03:57.872Z,50.47
2019-06-08T19:06:27.831Z,51.06
2019-06-08T19:08:58.413Z,51.61
2019-06-08T19:11:28.595Z,51.48
2019-06-08T19:13:58.175Z,51.67
2019-06-08T19:16:28.336Z,52.06
2019-06-08T19:18:58.254Z,52.37
2019-06-08T19:21:28.280Z,52.29
2019-06-08T19:23:58.815Z,52.95
2019-06-08T19:26:28.340Z,53.37
2019-06-08T19:28:58.820Z,53.03
2019-06-08T19:31:28.114Z,53.82
2019-06-08T19:33:58.086Z,54.37
2019-06-08T19:36:28.465Z,53.17
2019-06-08T19:38:58.677Z,52.89
2019-06-08T19:41:28.423Z,52.80
2019-06-08T19:43:59.247Z,53.15
2019-06-08T19:46:28.651Z,53.96
2019-06-08T19:48:58.938Z,54.74
2019-06-08T19:51:28.677Z,54.92
2019-06-08T19:53:58.471Z,55.49
2019-06-08T19:56:29.424Z,55.77
2019-06-08T19:59:03.977Z,56.31
2019-06-08T20:01:29.769Z,56.16
2019-06-08T20:04:01.231Z,57.08
2019-06-08T20:06:30.059Z,57.69
2019-06-08T20:08:59.438Z,57.45
2019-06-08T20:11:29.395Z,57.72
2019-06-08T20:13:58.800Z,58.18
2019-06-08T20:16:28.083Z,58.70
2019-06-08T20:18:58.644Z,59.06
2019-06-08T20:21:28.044Z,59.54
2019-06-08T20:23:58.467Z,58.68
2019-06-08T20:26:29.105Z,58.81
2019-06-08T20:29:12.148Z,58.70
2019-06-08T20:31:30.811Z,58.75
2019-06-08T20:34:00.094Z,58.61
2019-06-08T20:36:29.386Z,58.60
2019-06-08T20:38:58.745Z,59.03
2019-06-08T20:41:28.013Z,58.85
2019-06-08T20:43:57.974Z,59.58
2019-06-08T20:46:28.551Z,58.84
2019-06-08T20:48:58.244Z,58.71
2019-06-08T20:51:27.945Z,58.81
2019-06-08T20:53:57.488Z,59.61
2019-06-08T20:56:28.105Z,59.49
2019-06-08T20:58:59.030Z,59.37
2019-06-08T21:01:28.326Z,59.77
2019-06-08T21:03:57.824Z,60.28
2019-06-08T21:06:27.992Z,61.03
2019-06-08T21:08:57.985Z,61.30
2019-06-08T21:11:28.407Z,61.34
2019-06-08T21:13:57.718Z,61.18
2019-06-08T21:16:27.730Z,61.61
2019-06-08T21:18:57.959Z,61.73
2019-06-08T21:21:28.991Z,61.64
2019-06-08T21:24:01.063Z,61.86
2019-06-08T21:26:52.242Z,62.29
2019-06-08T21:29:19.375Z,62.20
2019-06-08T21:31:51.508Z,61.84
2019-06-08T21:34:19.676Z,61.62
2019-06-08T21:36:49.808Z,61.66
2019-06-08T21:39:20.906Z,62.14
2019-06-08T21:41:54.445Z,62.15
2019-06-08T21:44:21.169Z,62.31
2019-06-08T21:46:51.753Z,62.68
2019-06-08T21:49:21.445Z,63.50
2019-06-08T21:51:51.940Z,63.64
2019-06-08T21:54:21.684Z,63.38
2019-06-08T21:56:52.138Z,63.74
2019-06-08T21:59:21.959Z,63.96
2019-06-08T22:01:53.024Z,64.47
2019-06-08T22:04:22.210Z,64.34
2019-06-08T22:06:51.997Z,64.48
2019-06-08T22:09:21.285Z,64.73
2019-06-08T22:11:51.417Z,65.03
2019-06-08T22:14:21.662Z,65.76
2019-06-08T22:16:52.492Z,65.79
2019-06-08T22:19:21.837Z,66.30
2019-06-08T22:21:52.540Z,66.11
2019-06-08T22:24:22.108Z,66.28
2019-06-08T22:26:52.651Z,65.70
2019-06-08T22:29:22.376Z,66.17
2019-06-08T22:31:52.631Z,66.13
2019-06-08T22:34:22.626Z,66.14
2019-06-08T22:36:53.071Z,66.21
2019-06-08T22:39:22.982Z,66.22
2019-06-08T22:41:53.374Z,66.01
2019-06-08T22:44:22.727Z,66.11
2019-06-08T22:46:53.812Z,66.04
2019-06-08T22:49:22.955Z,66.66
2019-06-08T22:51:53.408Z,66.69
2019-06-08T22:54:23.090Z,67.14
2019-06-08T22:56:53.784Z,66.70
2019-06-08T22:59:23.454Z,67.77
2019-06-08T23:01:53.378Z,67.27
2019-06-08T23:04:24.124Z,67.55
2019-06-08T23:06:54.794Z,67.23
2019-06-08T23:09:24.413Z,67.93
2019-06-08T23:11:55.135Z,67.85
2019-06-08T23:14:25.308Z,67.31
2019-06-08T23:16:54.599Z,67.56
2019-06-08T23:19:26.356Z,67.80
2019-06-08T23:21:55.291Z,68.00
2019-06-08T23:24:24.602Z,68.27
2019-06-08T23:26:53.905Z,69.00
2019-06-08T23:29:23.205Z,69.25
2019-06-08T23:31:52.488Z,69.71
2019-06-08T23:34:23.332Z,69.63
2019-06-08T23:36:59.125Z,69.37
2019-06-08T23:39:23.738Z,69.29
2019-06-08T23:41:53.032Z,69.27
2019-06-08T23:44:22.298Z,69.06
2019-06-08T23:46:51.584Z,69.21
2019-06-08T23:49:20.887Z,69.56
2019-06-08T23:51:50.168Z,69.44
2019-06-08T23:54:19.474Z,69.22
2019-06-08T23:56:48.886Z,69.39
2019-06-08T23:59:18.172Z,69.49
